Weather at Troop A Headquarters Heliport

Public forecast

Using degrees Fahrenheit for public forecast. Weather courtesy of forecast.io.

Closest aviation weather report (METAR) to Troop A Headquarters Heliport

Closest report is Greater Rochester International Airport, 23.1 nm (42.8 km) ENE. Retrieved 2021/01/27 21:54 UTC (42 minutes ago):

KROC 272154Z 33010KT 10SM SCT031 BKN100 M04/M09 A3017 RMK AO2 SNE45 SLP229 ACC NW P0000 T10391094

Closest aviation forecast (TAF) to Troop A Headquarters Heliport

Closest forecast is Greater Rochester International Airport, 23.1 nm (42.8 km) ENE. Retrieved 2021/01/27 18:39 UTC (4 hours ago):

TAF KROC 271737Z 2718/2818 31012KT 6SM -SN BKN025 TEMPO 2718/2720 4SM -SN FM272200 30010KT P6SM OVC025 FM280300 31010KT P6SM VCSH OVC015 FM281400 31014G22KT P6SM BKN015